createdAt,value
2018-12-07T12:38:16.340Z,12.70
2018-12-07T12:39:16.330Z,55.30
2018-12-07T12:40:16.324Z,25.40
2018-12-07T12:41:16.294Z,16.00
2018-12-07T12:42:16.287Z,16.30
2018-12-07T12:43:16.293Z,13.80
2018-12-07T12:44:16.270Z,34.10
2018-12-07T12:45:16.265Z,22.00
2018-12-07T12:46:16.267Z,13.80
2018-12-07T12:47:16.252Z,12.50
2018-12-07T12:48:16.235Z,24.60
2018-12-07T12:49:16.342Z,19.20
2018-12-07T12:50:16.224Z,11.50
2018-12-07T12:51:16.214Z,6.60
2018-12-07T12:52:16.222Z,6.10
2018-12-07T12:53:16.205Z,6.90
2018-12-07T12:54:16.203Z,8.80
2018-12-07T12:55:16.196Z,7.00
2018-12-07T12:56:16.195Z,8.60
2018-12-07T12:57:16.177Z,7.90
2018-12-07T12:58:16.167Z,5.60
2018-12-07T12:59:16.167Z,5.20
2018-12-07T13:00:16.257Z,8.00
2018-12-07T13:01:16.155Z,4.60
2018-12-07T13:02:16.157Z,3.20
2018-12-07T13:03:16.403Z,3.40
2018-12-07T13:04:16.149Z,2.50
2018-12-07T13:05:16.149Z,2.90
2018-12-07T13:06:16.139Z,2.40
2018-12-07T13:07:16.121Z,2.40
2018-12-07T13:08:16.116Z,3.10
2018-12-07T13:09:16.120Z,3.50
2018-12-07T13:10:16.104Z,3.50
2018-12-07T13:11:16.105Z,3.10
2018-12-07T13:12:16.104Z,4.00
2018-12-07T13:13:16.089Z,3.80
2018-12-07T13:14:16.088Z,3.50
2018-12-07T13:15:16.082Z,3.70
2018-12-07T13:16:16.077Z,3.20
2018-12-07T13:17:16.070Z,3.20
2018-12-07T13:18:16.076Z,3.20
2018-12-07T13:19:16.074Z,3.10
2018-12-07T13:20:16.059Z,3.50
2018-12-07T13:21:16.172Z,3.10
2018-12-07T13:22:16.071Z,3.40
2018-12-07T13:23:16.057Z,3.40
2018-12-07T13:24:16.053Z,3.20
2018-12-07T13:25:16.035Z,3.30
2018-12-07T13:26:16.032Z,2.70
2018-12-07T13:27:16.042Z,3.80
2018-12-07T13:28:16.049Z,3.80
2018-12-07T13:29:16.043Z,3.80
2018-12-07T13:30:16.029Z,3.50
2018-12-07T13:31:16.014Z,3.20
2018-12-07T13:32:16.022Z,3.60
2018-12-07T13:33:16.006Z,3.60
2018-12-07T13:34:16.009Z,4.80
2018-12-07T13:35:15.997Z,7.10
2018-12-07T13:36:15.993Z,6.60
2018-12-07T13:37:15.992Z,4.70
2018-12-07T13:38:15.985Z,5.10
2018-12-07T13:39:15.981Z,4.80
2018-12-07T13:40:16.108Z,3.90
2018-12-07T13:41:16.025Z,4.30
2018-12-07T13:42:17.990Z,4.20
2018-12-07T13:43:16.022Z,4.30
2018-12-07T13:44:15.956Z,4.20
2018-12-07T13:45:16.240Z,4.80
2018-12-07T13:46:16.023Z,5.20
2018-12-07T13:47:16.156Z,5.60
2018-12-07T13:48:16.032Z,4.50
2018-12-07T13:49:16.042Z,6.80
2018-12-07T13:50:16.121Z,6.40
2018-12-07T13:51:16.154Z,8.20
2018-12-07T13:52:16.213Z,11.40
2018-12-07T13:53:16.024Z,8.80
2018-12-07T13:54:18.229Z,8.60
2018-12-07T13:55:16.026Z,5.90
2018-12-07T13:56:16.419Z,5.90
2018-12-07T13:57:16.017Z,7.70
2018-12-07T13:58:15.941Z,11.50
2018-12-07T13:59:16.267Z,10.40
2018-12-07T14:00:15.980Z,11.90
2018-12-07T14:01:15.947Z,13.10
2018-12-07T14:02:15.998Z,14.30
2018-12-07T14:03:15.917Z,6.90
2018-12-07T14:04:15.973Z,6.60
2018-12-07T14:05:15.975Z,5.70
2018-12-07T14:06:16.127Z,7.70
2018-12-07T14:07:15.925Z,11.10
2018-12-07T14:08:15.884Z,11.70
2018-12-07T14:09:15.954Z,10.50
2018-12-07T14:10:16.133Z,11.70
2018-12-07T14:11:15.980Z,8.80
2018-12-07T14:12:15.949Z,6.90
2018-12-07T14:13:15.951Z,9.10
2018-12-07T14:14:15.874Z,10.60
2018-12-07T14:15:15.945Z,10.50
2018-12-07T14:16:15.890Z,11.50
2018-12-07T14:17:15.867Z,10.10
2018-12-07T14:18:15.871Z,8.10
2018-12-07T14:19:16.284Z,8.00
2018-12-07T14:20:15.901Z,9.20
2018-12-07T14:21:15.875Z,7.30
2018-12-07T14:22:15.851Z,7.00
2018-12-07T14:23:15.986Z,8.30
2018-12-07T14:24:16.034Z,7.50
2018-12-07T14:25:15.940Z,10.40
2018-12-07T14:26:15.902Z,15.40
2018-12-07T14:27:15.964Z,13.00
2018-12-07T14:28:15.844Z,19.80
2018-12-07T14:29:15.837Z,18.90
2018-12-07T14:30:15.796Z,22.60
2018-12-07T14:31:15.944Z,22.90
2018-12-07T14:32:15.759Z,18.20
2018-12-07T14:33:15.785Z,33.40
2018-12-07T14:34:15.860Z,29.70
2018-12-07T14:35:15.882Z,34.60
2018-12-07T14:36:15.794Z,24.60
2018-12-07T14:37:16.039Z,29.40
2018-12-07T14:38:19.267Z,68.40
2018-12-07T14:39:15.763Z,49.80
2018-12-07T14:40:15.962Z,53.00
2018-12-07T14:41:15.732Z,36.30
2018-12-07T14:42:15.849Z,38.00
2018-12-07T14:43:15.874Z,71.80
2018-12-07T14:44:17.576Z,26.10
2018-12-07T14:45:15.895Z,120.30
2018-12-07T14:46:18.109Z,88.30
2018-12-07T14:47:15.738Z,140.60
2018-12-07T14:48:15.889Z,88.00
2018-12-07T14:49:15.808Z,37.40
2018-12-07T14:50:15.904Z,54.80
2018-12-07T14:51:15.799Z,33.70
2018-12-07T14:52:17.950Z,47.90
2018-12-07T14:53:15.733Z,40.20
2018-12-07T14:54:15.719Z,30.80
2018-12-07T14:55:15.691Z,36.20
2018-12-07T14:56:15.816Z,32.00
2018-12-07T14:57:15.741Z,84.60
2018-12-07T14:58:15.861Z,60.70
2018-12-07T14:59:15.708Z,123.80
2018-12-07T15:00:15.789Z,117.20
2018-12-07T15:01:15.877Z,100.30
2018-12-07T15:02:15.970Z,243.70
2018-12-07T15:03:15.831Z,232.50
2018-12-07T15:04:15.654Z,346.60
2018-12-07T15:05:15.780Z,267.40
2018-12-07T15:06:16.089Z,378.20
2018-12-07T15:07:15.676Z,457.90
2018-12-07T15:08:15.645Z,446.50
2018-12-07T15:09:15.602Z,365.20
2018-12-07T15:10:15.689Z,312.90
2018-12-07T15:11:15.667Z,361.40
2018-12-07T15:12:15.846Z,146.70
2018-12-07T15:13:17.672Z,219.10
2018-12-07T15:14:15.673Z,160.50
2018-12-07T15:15:15.662Z,250.30
2018-12-07T15:16:15.596Z,397.40
2018-12-07T15:17:15.723Z,393.40
2018-12-07T15:18:15.697Z,501.30
2018-12-07T15:19:15.742Z,576.60
2018-12-07T15:20:15.751Z,307.50
2018-12-07T15:21:15.539Z,537.80
2018-12-07T15:22:15.858Z,553.10
2018-12-07T15:23:15.577Z,318.20
2018-12-07T15:24:15.675Z,515.50
2018-12-07T15:25:15.533Z,651.80
2018-12-07T15:26:15.572Z,501.90
2018-12-07T15:27:15.652Z,698.10
2018-12-07T15:28:15.608Z,572.20
2018-12-07T15:29:15.512Z,596.70
2018-12-07T15:30:15.530Z,338.30
2018-12-07T15:31:15.696Z,553.10
2018-12-07T15:32:15.532Z,618.20
2018-12-07T15:33:15.581Z,315.00
2018-12-07T15:34:15.483Z,304.70
2018-12-07T15:35:15.679Z,321.20
2018-12-07T15:36:15.464Z,476.40
2018-12-07T15:37:15.761Z,208.40
2018-12-07T15:38:15.573Z,508.50
2018-12-07T15:39:15.696Z,317.30
2018-12-07T15:40:15.539Z,336.70
2018-12-07T15:41:15.465Z,271.50
2018-12-07T15:42:15.461Z,225.50
2018-12-07T15:43:15.978Z,294.60
2018-12-07T15:44:15.495Z,516.60
2018-12-07T15:45:15.560Z,383.30
2018-12-07T15:46:15.430Z,190.80
2018-12-07T15:47:15.534Z,434.10
2018-12-07T15:48:15.505Z,479.70
2018-12-07T15:49:15.468Z,407.60
2018-12-07T15:50:15.428Z,522.30
2018-12-07T15:51:15.468Z,496.20
2018-12-07T15:52:15.432Z,548.80
2018-12-07T15:53:15.453Z,732.70
2018-12-07T15:54:15.404Z,637.60
2018-12-07T15:55:17.793Z,539.50
2018-12-07T15:56:15.427Z,744.40
2018-12-07T15:57:15.436Z,346.40
2018-12-07T15:58:15.435Z,476.10
2018-12-07T15:59:15.366Z,470.20
2018-12-07T16:00:15.521Z,502.30
2018-12-07T16:01:15.406Z,608.40
2018-12-07T16:02:15.377Z,659.50
2018-12-07T16:03:15.514Z,771.70
2018-12-07T16:04:15.337Z,672.70
2018-12-07T16:05:19.040Z,736.40
2018-12-07T16:06:15.379Z,793.10
2018-12-07T16:07:15.316Z,664.40
2018-12-07T16:08:15.465Z,757.70
2018-12-07T16:09:15.333Z,822.70
2018-12-07T16:10:15.378Z,689.30
2018-12-07T16:11:15.519Z,670.10
2018-12-07T16:12:15.515Z,558.70
2018-12-07T16:13:15.367Z,784.20
2018-12-07T16:14:15.314Z,611.30
2018-12-07T16:15:15.370Z,595.90
2018-12-07T16:16:15.350Z,628.60
2018-12-07T16:17:15.379Z,648.50
2018-12-07T16:18:15.260Z,572.00
2018-12-07T16:19:15.282Z,599.50
2018-12-07T16:20:15.336Z,550.40
2018-12-07T16:21:15.428Z,571.90
2018-12-07T16:22:15.586Z,620.90
2018-12-07T16:23:15.240Z,536.30
2018-12-07T16:24:15.362Z,572.50
2018-12-07T16:25:15.301Z,528.80
2018-12-07T16:26:15.424Z,560.90
2018-12-07T16:27:15.226Z,569.40
2018-12-07T16:28:15.472Z,549.80
2018-12-07T16:29:15.229Z,610.00
2018-12-07T16:30:15.327Z,480.50
2018-12-07T16:31:15.442Z,508.40
2018-12-07T16:32:15.363Z,311.70
2018-12-07T16:33:15.439Z,491.60
2018-12-07T16:34:15.322Z,495.90
2018-12-07T16:35:15.435Z,543.30
2018-12-07T16:36:15.355Z,574.30
2018-12-07T16:37:15.298Z,590.60
2018-12-07T16:38:15.182Z,604.30
2018-12-07T16:39:15.195Z,620.10
2018-12-07T16:40:16.399Z,692.60
2018-12-07T16:41:15.151Z,539.30
2018-12-07T16:42:15.135Z,539.30
2018-12-07T16:43:15.175Z,658.40
2018-12-07T16:44:15.145Z,632.00
2018-12-07T16:45:15.179Z,551.30
2018-12-07T16:46:15.174Z,610.20
2018-12-07T16:47:15.147Z,623.40
2018-12-07T16:48:17.976Z,522.30
2018-12-07T16:49:15.341Z,527.50
2018-12-07T16:50:15.122Z,678.40
2018-12-07T16:51:15.178Z,680.90
2018-12-07T16:52:15.343Z,726.60
2018-12-07T16:53:15.151Z,717.50
2018-12-07T16:54:15.115Z,659.10
2018-12-07T16:55:15.268Z,655.80
2018-12-07T16:56:15.250Z,639.40
2018-12-07T16:57:15.224Z,872.50
2018-12-07T16:58:15.228Z,818.70
2018-12-07T16:59:15.196Z,846.70
2018-12-07T17:00:15.032Z,844.90
2018-12-07T17:01:15.048Z,873.00
2018-12-07T17:02:15.067Z,866.90
2018-12-07T17:03:15.272Z,827.70
2018-12-07T17:04:15.011Z,922.60
2018-12-07T17:05:15.092Z,918.10
2018-12-07T17:06:14.994Z,956.80
2018-12-07T17:07:15.128Z,954.10
2018-12-07T17:08:15.211Z,955.00
2018-12-07T17:09:15.003Z,999.90
2018-12-07T17:10:18.005Z,999.90
2018-12-07T17:11:15.106Z,986.50
2018-12-07T17:12:15.079Z,999.90
2018-12-07T17:13:15.279Z,999.90
2018-12-07T17:14:15.063Z,999.90
2018-12-07T17:15:14.972Z,999.90
2018-12-07T17:16:15.025Z,999.90
2018-12-07T17:17:14.941Z,999.90
2018-12-07T17:18:15.183Z,999.90
2018-12-07T17:19:15.057Z,999.90
2018-12-07T17:20:14.922Z,999.90
2018-12-07T17:21:14.929Z,999.90
2018-12-07T17:22:15.046Z,999.90
2018-12-07T17:23:15.132Z,999.90
2018-12-07T17:24:14.924Z,999.90
2018-12-07T17:25:15.017Z,999.90
2018-12-07T17:26:15.062Z,999.90
2018-12-07T17:27:15.131Z,999.90
2018-12-07T17:28:15.137Z,999.90
2018-12-07T17:29:14.871Z,999.90
2018-12-07T17:30:14.864Z,999.90
2018-12-07T17:31:14.905Z,999.90
2018-12-07T17:32:15.009Z,999.90
2018-12-07T17:33:14.828Z,999.90
2018-12-07T17:34:14.823Z,999.90
2018-12-07T17:35:14.845Z,999.90
2018-12-07T17:36:14.938Z,999.90
2018-12-07T17:37:14.839Z,999.90
2018-12-07T17:38:14.810Z,999.90
2018-12-07T17:39:14.786Z,999.90
2018-12-07T17:40:14.778Z,999.90
2018-12-07T17:41:14.896Z,999.90
2018-12-07T17:42:14.774Z,999.90
2018-12-07T17:43:14.949Z,999.90
2018-12-07T17:44:15.545Z,999.90
2018-12-07T17:45:14.746Z,999.90
2018-12-07T17:46:14.864Z,999.90
2018-12-07T17:47:14.985Z,999.90
2018-12-07T17:48:15.216Z,999.90
2018-12-07T17:49:14.737Z,999.90
2018-12-07T17:50:14.732Z,999.90
2018-12-07T17:51:14.751Z,999.90
2018-12-07T17:52:14.878Z,999.90
2018-12-07T17:53:14.702Z,999.90
2018-12-07T17:54:15.047Z,999.90
2018-12-07T17:55:14.871Z,999.90
2018-12-07T17:56:14.944Z,999.90
2018-12-07T17:57:14.748Z,999.90
2018-12-07T17:58:14.906Z,999.90
2018-12-07T17:59:14.741Z,999.90
2018-12-07T18:00:15.067Z,999.90
2018-12-07T18:01:14.639Z,999.90
2018-12-07T18:02:14.678Z,999.90
2018-12-07T18:03:14.641Z,999.90
2018-12-07T18:04:14.607Z,999.90
2018-12-07T18:05:14.788Z,999.90
2018-12-07T18:06:14.896Z,999.90
2018-12-07T18:07:14.651Z,999.90
2018-12-07T18:08:14.682Z,999.90
2018-12-07T18:09:14.675Z,999.90
2018-12-07T18:10:14.821Z,999.90
2018-12-07T18:11:14.793Z,999.90
2018-12-07T18:12:14.899Z,999.90
2018-12-07T18:13:14.533Z,999.90
2018-12-07T18:14:14.590Z,999.90
2018-12-07T18:15:14.777Z,999.90
2018-12-07T18:16:14.530Z,999.90
2018-12-07T18:17:14.752Z,999.90
2018-12-07T18:18:14.507Z,999.90
2018-12-07T18:19:14.540Z,999.90
2018-12-07T18:20:14.814Z,999.90
2018-12-07T18:21:14.501Z,999.90
2018-12-07T18:22:14.633Z,999.90
2018-12-07T18:23:14.490Z,999.90
2018-12-07T18:24:14.439Z,999.90
2018-12-07T18:25:14.469Z,999.90
2018-12-07T18:26:14.538Z,999.90
2018-12-07T18:27:14.437Z,999.90
2018-12-07T18:28:14.446Z,999.90
2018-12-07T18:29:14.586Z,999.90
2018-12-07T18:30:14.433Z,999.90
2018-12-07T18:31:14.447Z,999.90
2018-12-07T18:32:14.666Z,999.90
2018-12-07T18:33:14.395Z,999.90
2018-12-07T18:34:14.626Z,999.90
2018-12-07T18:35:14.472Z,999.90
2018-12-07T18:36:14.409Z,999.90
2018-12-07T18:37:14.616Z,999.90
2018-12-07T18:38:14.365Z,999.90
2018-12-07T18:39:14.788Z,999.90
2018-12-07T18:40:14.308Z,999.90
2018-12-07T18:41:14.584Z,999.90
2018-12-07T18:42:14.575Z,999.90
2018-12-07T18:43:14.579Z,999.90
2018-12-07T18:44:14.303Z,999.90
2018-12-07T18:45:14.698Z,999.90
2018-12-07T18:46:14.328Z,999.90
2018-12-07T18:47:14.301Z,999.90
2018-12-07T18:48:14.303Z,999.90
2018-12-07T18:49:14.543Z,999.90
2018-12-07T18:50:14.428Z,999.90
2018-12-07T18:51:14.275Z,999.90
2018-12-07T18:52:14.462Z,999.90
2018-12-07T18:53:14.360Z,999.90
2018-12-07T18:54:14.363Z,999.90
2018-12-07T18:55:14.262Z,999.90
2018-12-07T18:56:14.428Z,999.90
2018-12-07T18:57:14.381Z,999.90
2018-12-07T18:58:14.402Z,999.90
2018-12-07T18:59:14.319Z,999.90
2018-12-07T19:00:14.271Z,999.90
2018-12-07T19:01:14.171Z,999.90
2018-12-07T19:02:14.137Z,999.90
2018-12-07T19:03:14.358Z,999.90
2018-12-07T19:04:14.133Z,999.90
2018-12-07T19:05:14.119Z,999.90
2018-12-07T19:06:14.209Z,999.90
2018-12-07T19:07:14.268Z,999.90
2018-12-07T19:08:14.305Z,999.90
2018-12-07T19:09:14.223Z,999.90
2018-12-07T19:10:14.273Z,999.90
2018-12-07T19:11:14.827Z,999.90
2018-12-07T19:12:14.126Z,999.90
2018-12-07T19:13:14.093Z,999.90
2018-12-07T19:14:14.133Z,999.90
2018-12-07T19:15:14.056Z,999.90
2018-12-07T19:16:14.022Z,999.90
2018-12-07T19:17:14.338Z,999.90
2018-12-07T19:18:14.118Z,999.90
2018-12-07T19:19:14.169Z,999.90
2018-12-07T19:20:14.021Z,999.90
2018-12-07T19:21:14.068Z,999.90
2018-12-07T19:22:14.212Z,999.90
2018-12-07T19:23:14.019Z,999.90
2018-12-07T19:24:14.198Z,999.90
2018-12-07T19:25:14.173Z,999.90
2018-12-07T19:26:14.060Z,999.90
2018-12-07T19:27:14.102Z,999.90
2018-12-07T19:28:14.018Z,999.90
2018-12-07T19:29:14.197Z,999.90
2018-12-07T19:30:14.664Z,999.90
2018-12-07T19:31:14.228Z,999.90
2018-12-07T19:32:13.929Z,999.90
2018-12-07T19:33:14.055Z,999.90
2018-12-07T19:34:13.906Z,999.90
2018-12-07T19:35:14.094Z,999.90
2018-12-07T19:36:14.023Z,999.90
2018-12-07T19:37:14.206Z,999.90
2018-12-07T19:38:13.951Z,999.90
2018-12-07T19:39:14.123Z,999.90
2018-12-07T19:40:14.015Z,999.90
2018-12-07T19:41:14.192Z,999.90
2018-12-07T19:42:13.845Z,999.90
2018-12-07T19:43:13.807Z,999.90
2018-12-07T19:44:13.963Z,999.90
2018-12-07T19:45:13.963Z,999.90
2018-12-07T19:46:13.873Z,999.90
2018-12-07T19:47:14.025Z,999.90
2018-12-07T19:48:13.772Z,999.90
2018-12-07T19:49:13.720Z,999.90
2018-12-07T19:50:13.765Z,999.90
2018-12-07T19:51:13.737Z,999.90
2018-12-07T19:52:13.984Z,999.90
2018-12-07T19:53:13.803Z,999.90
2018-12-07T19:54:13.757Z,999.90
2018-12-07T19:55:14.016Z,999.90
2018-12-07T19:56:17.624Z,999.90
2018-12-07T19:57:13.899Z,999.90
2018-12-07T19:58:13.719Z,999.90
2018-12-07T19:59:13.759Z,999.90
2018-12-07T20:00:14.098Z,999.90
2018-12-07T20:01:13.748Z,999.90
2018-12-07T20:02:13.901Z,999.90
2018-12-07T20:03:13.740Z,999.90
2018-12-07T20:04:13.866Z,999.90
2018-12-07T20:05:13.834Z,999.90
2018-12-07T20:06:13.840Z,999.90
2018-12-07T20:07:13.651Z,999.90
2018-12-07T20:08:13.609Z,999.90
2018-12-07T20:09:13.739Z,999.90
2018-12-07T20:10:13.569Z,999.90
2018-12-07T20:11:13.702Z,999.90
2018-12-07T20:12:13.578Z,999.90
2018-12-07T20:13:13.797Z,999.90
2018-12-07T20:14:13.579Z,999.90
2018-12-07T20:15:13.486Z,999.90
2018-12-07T20:16:13.551Z,999.90
2018-12-07T20:17:13.484Z,999.90
2018-12-07T20:18:13.485Z,999.90
2018-12-07T20:19:13.512Z,999.90
2018-12-07T20:20:13.475Z,999.90
2018-12-07T20:21:13.598Z,999.90
2018-12-07T20:22:15.432Z,999.90
2018-12-07T20:23:13.460Z,999.90
2018-12-07T20:24:13.484Z,999.90
2018-12-07T20:25:13.470Z,999.90
2018-12-07T20:26:13.749Z,999.90
2018-12-07T20:27:13.403Z,999.90
2018-12-07T20:28:14.441Z,999.90
2018-12-07T20:29:13.375Z,999.90
2018-12-07T20:30:13.533Z,999.90
2018-12-07T20:31:13.587Z,999.90
2018-12-07T20:32:13.366Z,999.90
2018-12-07T20:33:13.347Z,999.90
2018-12-07T20:34:13.701Z,999.90
2018-12-07T20:35:13.341Z,999.90
2018-12-07T20:36:13.322Z,999.90
2018-12-07T20:37:13.329Z,999.90
2018-12-07T20:38:13.364Z,999.90
2018-12-07T20:39:13.365Z,999.90
2018-12-07T20:40:13.662Z,999.90
2018-12-07T20:41:13.270Z,999.90
2018-12-07T20:42:13.285Z,999.90
2018-12-07T20:43:13.266Z,999.90
2018-12-07T20:44:13.284Z,999.90
2018-12-07T20:45:13.274Z,999.90
2018-12-07T20:46:13.222Z,999.90
2018-12-07T20:47:13.258Z,999.90
2018-12-07T20:48:13.474Z,999.90
2018-12-07T20:49:13.247Z,999.90
2018-12-07T20:50:13.489Z,999.90
2018-12-07T20:51:13.221Z,999.90
2018-12-07T20:52:13.218Z,999.90
2018-12-07T20:53:13.488Z,999.90
2018-12-07T20:54:13.346Z,999.90
2018-12-07T20:55:13.320Z,999.90
2018-12-07T20:56:13.177Z,999.90
2018-12-07T20:57:13.171Z,999.90
2018-12-07T20:58:13.511Z,999.90
2018-12-07T20:59:13.099Z,999.90
2018-12-07T21:00:13.409Z,999.90
2018-12-07T21:01:13.076Z,999.90
2018-12-07T21:02:13.085Z,999.90
2018-12-07T21:03:13.052Z,999.90
2018-12-07T21:04:13.246Z,999.90
2018-12-07T21:05:13.100Z,999.90
2018-12-07T21:06:13.301Z,999.90
2018-12-07T21:07:13.309Z,999.90
2018-12-07T21:08:13.103Z,999.90
2018-12-07T21:09:13.012Z,999.90
2018-12-07T21:10:13.066Z,999.90
2018-12-07T21:11:12.993Z,999.90
2018-12-07T21:12:13.165Z,999.90
2018-12-07T21:13:12.972Z,999.90
2018-12-07T21:14:13.128Z,999.90
2018-12-07T21:15:12.971Z,999.90
2018-12-07T21:16:12.978Z,999.90
2018-12-07T21:17:13.263Z,999.90
2018-12-07T21:18:13.313Z,999.90
2018-12-07T21:19:12.919Z,999.90
2018-12-07T21:20:12.978Z,999.90
2018-12-07T21:21:12.927Z,999.90
2018-12-07T21:22:13.320Z,999.90
2018-12-07T21:23:12.943Z,999.90
2018-12-07T21:24:13.073Z,999.90
2018-12-07T21:25:12.864Z,955.20
2018-12-07T21:26:20.750Z,999.90
2018-12-07T21:27:13.253Z,999.90
2018-12-07T21:28:12.852Z,999.90
2018-12-07T21:29:12.982Z,999.90
2018-12-07T21:30:12.925Z,999.90
2018-12-07T21:31:12.832Z,999.90
2018-12-07T21:32:12.812Z,999.90
2018-12-07T21:33:12.877Z,999.90
2018-12-07T21:34:13.080Z,999.90
2018-12-07T21:35:12.761Z,999.90
2018-12-07T21:36:12.790Z,999.90
2018-12-07T21:37:12.920Z,999.90
2018-12-07T21:38:12.807Z,999.90
2018-12-07T21:39:12.788Z,999.90
2018-12-07T21:40:12.786Z,999.90
2018-12-07T21:41:12.714Z,999.90
2018-12-07T21:42:12.723Z,999.90
2018-12-07T21:43:12.917Z,999.90
2018-12-07T21:44:12.903Z,999.90
2018-12-07T21:45:12.959Z,999.90
2018-12-07T21:46:12.738Z,999.90
2018-12-07T21:47:12.893Z,999.90
2018-12-07T21:48:12.822Z,999.90
2018-12-07T21:49:12.673Z,999.90
2018-12-07T21:50:12.667Z,999.90
2018-12-07T21:51:12.608Z,999.90
2018-12-07T21:52:12.850Z,999.90
2018-12-07T21:53:12.871Z,999.90
2018-12-07T21:54:12.705Z,999.90
2018-12-07T21:55:12.743Z,999.90
2018-12-07T21:56:12.834Z,999.90
2018-12-07T21:57:12.688Z,999.90
2018-12-07T21:58:12.542Z,999.90
2018-12-07T21:59:12.564Z,999.90
2018-12-07T22:00:12.541Z,999.90
2018-12-07T22:01:12.553Z,999.90
2018-12-07T22:02:12.875Z,999.90
2018-12-07T22:03:12.578Z,999.90
2018-12-07T22:04:12.673Z,999.90
2018-12-07T22:05:12.702Z,999.90
2018-12-07T22:06:12.542Z,999.90
2018-12-07T22:07:12.483Z,999.90
2018-12-07T22:08:12.527Z,999.90
2018-12-07T22:09:12.700Z,999.90
2018-12-07T22:10:12.483Z,999.90
2018-12-07T22:11:12.454Z,999.90
2018-12-07T22:12:12.754Z,999.90
2018-12-07T22:13:12.501Z,999.90
2018-12-07T22:14:12.442Z,999.90
2018-12-07T22:15:12.646Z,999.90
2018-12-07T22:16:12.350Z,999.90
2018-12-07T22:17:12.362Z,999.90
2018-12-07T22:18:12.457Z,999.90
2018-12-07T22:19:12.918Z,999.90
2018-12-07T22:20:12.468Z,999.90
2018-12-07T22:21:12.563Z,999.90
2018-12-07T22:22:12.480Z,999.90
2018-12-07T22:23:12.294Z,999.90
2018-12-07T22:24:12.319Z,999.90
2018-12-07T22:25:12.808Z,999.90
2018-12-07T22:26:12.280Z,999.90
2018-12-07T22:27:12.353Z,999.90
2018-12-07T22:28:12.299Z,999.90
2018-12-07T22:29:12.306Z,999.90
2018-12-07T22:30:12.253Z,999.90
2018-12-07T22:31:12.225Z,999.90
2018-12-07T22:32:12.214Z,999.90
2018-12-07T22:33:12.232Z,999.90
2018-12-07T22:34:12.193Z,999.90
2018-12-07T22:35:12.476Z,999.90
2018-12-07T22:36:12.193Z,999.90
2018-12-07T22:37:12.298Z,999.90
2018-12-07T22:38:12.331Z,999.90
2018-12-07T22:39:12.148Z,999.90
2018-12-07T22:40:12.179Z,999.90
2018-12-07T22:41:12.300Z,999.90
2018-12-07T22:42:12.203Z,999.90
2018-12-07T22:43:12.119Z,999.90
2018-12-07T22:44:12.200Z,999.90
2018-12-07T22:45:12.296Z,999.90
2018-12-07T22:46:12.060Z,999.90
2018-12-07T22:47:12.430Z,999.90
2018-12-07T22:48:12.159Z,965.20
2018-12-07T22:49:12.035Z,999.90
2018-12-07T22:50:12.038Z,999.90
2018-12-07T22:51:12.046Z,999.90
2018-12-07T22:52:12.006Z,990.10
2018-12-07T22:53:11.994Z,920.00
2018-12-07T22:54:12.029Z,999.90
2018-12-07T22:55:11.977Z,890.00
2018-12-07T22:56:11.981Z,841.70
2018-12-07T22:57:11.961Z,913.80
2018-12-07T22:58:11.982Z,864.30
2018-12-07T22:59:11.929Z,921.90
2018-12-07T23:00:11.906Z,889.20
2018-12-07T23:01:11.920Z,909.10
2018-12-07T23:02:12.216Z,789.70
2018-12-07T23:03:11.918Z,828.20
2018-12-07T23:04:11.870Z,918.00
2018-12-07T23:05:11.885Z,853.80
2018-12-07T23:06:11.857Z,831.70
2018-12-07T23:07:11.870Z,853.30
2018-12-07T23:08:11.836Z,959.90
2018-12-07T23:09:11.839Z,901.40
2018-12-07T23:10:11.831Z,880.30
2018-12-07T23:11:11.806Z,907.30
2018-12-07T23:12:11.796Z,875.10
2018-12-07T23:13:11.774Z,918.20
2018-12-07T23:14:11.791Z,953.70
2018-12-07T23:15:11.777Z,879.70
2018-12-07T23:16:11.777Z,906.20
2018-12-07T23:17:11.761Z,900.70
2018-12-07T23:18:11.739Z,924.80
2018-12-07T23:19:11.733Z,964.30
2018-12-07T23:20:11.727Z,999.90
2018-12-07T23:21:11.701Z,914.60
2018-12-07T23:22:11.698Z,879.00
2018-12-07T23:23:11.721Z,970.90
2018-12-07T23:24:11.725Z,937.10
2018-12-07T23:25:11.659Z,962.40
2018-12-07T23:26:11.674Z,994.60
2018-12-07T23:27:11.634Z,994.10
2018-12-07T23:28:11.658Z,989.30
2018-12-07T23:29:11.637Z,993.00
2018-12-07T23:30:11.639Z,956.60
2018-12-07T23:31:11.616Z,961.20
2018-12-07T23:32:11.594Z,932.90
2018-12-07T23:33:11.577Z,991.10
2018-12-07T23:34:11.571Z,949.00
2018-12-07T23:35:11.576Z,898.20
2018-12-07T23:36:11.563Z,902.00
2018-12-07T23:37:11.546Z,932.30
2018-12-07T23:38:11.560Z,941.30
2018-12-07T23:39:11.531Z,960.10
2018-12-07T23:40:11.518Z,939.90
2018-12-07T23:41:11.539Z,873.20
2018-12-07T23:42:11.501Z,949.90
2018-12-07T23:43:11.487Z,937.70
2018-12-07T23:44:11.492Z,945.40
2018-12-07T23:45:11.466Z,944.70
2018-12-07T23:46:11.469Z,899.10
2018-12-07T23:47:11.445Z,984.80
2018-12-07T23:48:11.487Z,976.80
2018-12-07T23:49:11.437Z,999.90
2018-12-07T23:50:11.420Z,946.50
2018-12-07T23:51:11.406Z,987.20
2018-12-07T23:52:11.418Z,974.10
2018-12-07T23:53:11.399Z,946.30
2018-12-07T23:54:11.385Z,981.70
2018-12-07T23:55:11.364Z,912.70
2018-12-07T23:56:11.374Z,921.80
2018-12-07T23:57:11.368Z,970.60
2018-12-07T23:58:11.377Z,950.60
2018-12-07T23:59:11.336Z,988.20
